Tropical Cyclones
[Index]
Main Index Home Page Stock Weather Photos Extreme Storms Discussion Storm News and Storm Chasing Reports Tropical Cyclones / Hurricanes / Typhoons Weather Data and Links Wild Fires / Bushfires Weather Observation Techniques Weather Picture Catalogue Tornado Pictures and Reports Stock Video Footage and DVDs for sale
Season 1970-1971 Tropical Cyclone LENA Track Map
Season 1970-1971 Summaries: [BoM-AU] [JTWC-AU] [JTWC-SIO] [JTWC-SPAC] [JTWC-SH]
<<- Previous TC | BoM 1970-1971 Season | Next TC ->>

click for intensity scale information  Lat/long Grid: Show Hide

 Date Labels: Show Hide

Bureau of Meteorology Tropical Cyclone Data

Name: LENA
Number: 480 / 197071_19

13 Mar 1971 05:00 UTC to 19 Mar 1971 23:00 UTC

    date/time    lat    long    hPa   cat  kts
1971-03-13 05   12.4   154.8    995    1                
1971-03-13 08   13.1   155.3    994    1                
1971-03-13 11   13.6   155.8    994    1                
1971-03-13 14   14.2   156.1    992    1                
1971-03-13 17   14.6   156.4    992    1                
1971-03-13 20   15.2   156.7    992    1                
1971-03-13 23   15.8   156.8    994    1                
1971-03-14 02   16.4   156.8    992    1                
1971-03-14 05   17.0   156.8    990    1                
1971-03-14 08   17.6   156.8    990    1                
1971-03-14 11   18.2   156.7    992    1                
1971-03-14 14   18.7   156.4    990    1                
1971-03-14 17   19.2   156.2    987    1                
1971-03-14 20   19.7   155.8    985    2                
1971-03-14 23   20.1   155.4    983    2                
1971-03-15 02   20.5   155.1    983    2                
1971-03-15 05   20.9   154.8    980    2                
1971-03-15 08   21.4   154.6    980    2                
1971-03-15 10   21.5   154.4    980    2                
1971-03-15 11   21.7   154.4    980    2                
1971-03-15 14   22.0   154.2    980    2                
1971-03-15 17   22.3   154.1    980    2                
1971-03-15 18   22.4   154.1    981    2                
1971-03-15 20   22.6   154.2    984    2                
1971-03-15 23   22.9   154.2    985    2                
1971-03-16 02   23.3   154.3    987    1                
1971-03-16 05   23.7   154.5    988    1                
1971-03-16 08   23.9   154.8    988    1                
1971-03-16 11   24.0   155.0    990    1                
1971-03-16 14   23.9   155.1    991    1                
1971-03-16 17   23.8   155.2    991    1                
1971-03-16 20   23.7   155.3    991    1                
1971-03-16 23   23.6   155.4    992    1                
1971-03-17 02   23.4   155.6    992    1                
1971-03-17 05   23.2   155.8    992    1                
1971-03-17 08   23.1   156.1    992    1                
1971-03-17 11   22.9   156.3    992    1                
1971-03-17 14   22.7   156.6    992    1                
1971-03-17 17   22.6   157.0    992    1                
1971-03-17 20   22.4   157.4    992    1                
1971-03-17 23   22.2   157.9    992    1                
1971-03-18 02   22.0   158.4    992    1                
1971-03-18 05   21.8   158.9    992    1                
1971-03-18 08   21.7   159.4    992    1                
1971-03-18 11   21.5   159.9    992    1                
1971-03-18 14   21.4   160.4    992    1                
1971-03-18 17   21.4   160.8    992    1                
1971-03-18 20   21.5   161.2    993    1                
1971-03-18 23   21.6   161.6    994    1                
1971-03-19 02   21.6   162.0    995    1                
1971-03-19 05   21.7   162.5    996                     
1971-03-19 08   21.8   163.0    997                     
1971-03-19 11   22.1   163.6    998                     
1971-03-19 14   22.3   164.4    998                     
1971-03-19 17   22.9   165.4    998                     
1971-03-19 20   23.4   166.6    998                     
1971-03-19 23   24.0   167.8   1000                     
Winds are 10-min average.

Tropical cyclone tracks developed by Michael Bath using data from the Bureau of Meteorology and Google Maps.


[Australian Severe Weather index] [Copyright Notice] [Email Contacts] [Search This Site] [Privacy Policy]
Document: tropical_cyclone_lena.htm Updated: 30 May 2013